createdAt,value
2022-11-24T09:34:58.632Z,4.50
2022-11-24T09:38:01.406Z,4.40
2022-11-24T09:40:34.055Z,4.40
2022-11-24T09:43:07.028Z,4.50
2022-11-24T09:48:35.408Z,4.50
2022-11-24T09:51:04.775Z,4.60
2022-11-24T09:53:36.195Z,4.70
2022-11-24T09:56:13.531Z,4.80
2022-11-24T09:58:45.118Z,5.00
2022-11-24T10:01:17.277Z,5.10
2022-11-24T10:03:46.392Z,5.30
2022-11-24T10:06:25.645Z,5.40
2022-11-24T10:09:12.977Z,5.60
2022-11-24T10:11:48.384Z,5.70
2022-11-24T10:14:33.709Z,5.90
2022-11-24T10:17:07.851Z,5.90
2022-11-24T10:19:40.608Z,5.90
2022-11-24T10:22:17.777Z,6.00
2022-11-24T10:25:01.490Z,6.00
2022-11-24T10:27:33.887Z,5.90
2022-11-24T10:30:03.302Z,5.90
2022-11-24T10:32:33.551Z,5.80
2022-11-24T10:35:04.150Z,5.80
2022-11-24T10:37:35.076Z,5.80
2022-11-24T10:40:10.816Z,5.80
2022-11-24T10:42:49.929Z,5.80
2022-11-24T10:45:19.244Z,5.80
2022-11-24T10:47:47.943Z,5.70
2022-11-24T10:50:22.207Z,5.80
2022-11-24T10:52:52.677Z,5.80
2022-11-24T10:55:22.598Z,5.80
2022-11-24T10:57:52.399Z,5.80
2022-11-24T11:00:45.044Z,5.80
2022-11-24T11:03:17.196Z,5.80
2022-11-24T11:05:45.987Z,5.70
2022-11-24T11:08:21.668Z,5.60
2022-11-24T11:10:50.937Z,5.70
2022-11-24T11:13:25.087Z,5.70
2022-11-24T11:15:53.517Z,5.60
2022-11-24T11:18:22.317Z,5.60
2022-11-24T11:20:54.814Z,5.70
2022-11-24T11:23:27.414Z,5.70
2022-11-24T11:26:15.572Z,5.80
2022-11-24T11:28:57.714Z,5.80
2022-11-24T11:31:25.846Z,5.70
2022-11-24T11:34:08.242Z,5.70
2022-11-24T11:36:41.612Z,5.70
2022-11-24T11:39:15.897Z,5.70
2022-11-24T11:41:46.521Z,5.80
2022-11-24T11:44:22.899Z,5.80
2022-11-24T11:46:51.061Z,5.80
2022-11-24T11:49:20.829Z,5.80
2022-11-24T11:52:03.049Z,5.90
2022-11-24T11:54:41.359Z,5.80
2022-11-24T11:57:13.764Z,5.70
2022-11-24T11:59:59.210Z,5.80
2022-11-24T12:02:53.937Z,5.80
2022-11-24T12:05:33.271Z,5.90
2022-11-24T12:08:24.017Z,5.90
2022-11-24T12:10:57.321Z,6.00
2022-11-24T12:14:07.513Z,5.90
2022-11-24T12:16:41.618Z,5.90
2022-11-24T12:19:23.053Z,5.90
2022-11-24T12:21:57.557Z,5.90
2022-11-24T12:24:32.155Z,5.90
2022-11-24T12:27:12.288Z,5.90
2022-11-24T12:29:57.335Z,5.90
2022-11-24T12:32:36.101Z,5.90
2022-11-24T12:35:10.975Z,5.90
2022-11-24T12:37:51.113Z,5.90
2022-11-24T12:40:27.519Z,5.80
2022-11-24T12:43:04.688Z,5.80
2022-11-24T12:45:44.445Z,5.90
2022-11-24T12:48:29.925Z,5.90
2022-11-24T12:51:02.221Z,6.00
2022-11-24T12:53:32.808Z,6.10
2022-11-24T12:56:11.206Z,6.10
2022-11-24T12:58:45.694Z,6.10
2022-11-24T13:01:18.743Z,6.10
2022-11-24T13:03:51.136Z,6.10
2022-11-24T13:06:32.031Z,6.10
2022-11-24T13:09:14.624Z,6.10
2022-11-24T13:11:46.270Z,6.10
2022-11-24T13:14:38.622Z,6.00
2022-11-24T13:18:02.585Z,6.10
2022-11-24T13:20:34.841Z,6.00
2022-11-24T13:23:10.720Z,6.00
2022-11-24T13:26:06.529Z,5.90
2022-11-24T13:29:05.805Z,5.90
2022-11-24T13:31:42.149Z,5.90
2022-11-24T13:34:27.799Z,5.80
2022-11-24T13:36:57.349Z,5.80
2022-11-24T13:39:52.185Z,5.80
2022-11-24T13:42:41.554Z,5.80
2022-11-24T13:45:30.640Z,5.80
2022-11-24T13:48:03.620Z,5.80
2022-11-24T13:50:47.745Z,5.80
2022-11-24T13:53:22.213Z,5.90
2022-11-24T13:55:56.888Z,5.80
2022-11-24T13:58:29.011Z,5.80
2022-11-24T14:01:18.019Z,5.90
2022-11-24T14:07:02.528Z,5.80
2022-11-24T14:09:42.222Z,5.90
2022-11-24T14:12:19.764Z,5.90
2022-11-24T14:14:55.485Z,5.90
2022-11-24T14:17:49.590Z,5.80
2022-11-24T14:20:30.244Z,5.90
2022-11-24T14:23:00.848Z,5.80
2022-11-24T14:25:33.488Z,5.80
2022-11-24T14:28:01.868Z,5.90
2022-11-24T14:30:31.430Z,5.90
2022-11-24T14:33:00.954Z,5.90
2022-11-24T14:35:31.246Z,5.80
2022-11-24T14:38:04.240Z,5.80
2022-11-24T14:40:45.977Z,5.80
2022-11-24T14:43:18.314Z,5.80
2022-11-24T14:45:51.118Z,5.80
2022-11-24T14:48:20.344Z,5.80
2022-11-24T14:50:48.878Z,5.80
2022-11-24T14:53:26.020Z,5.70
2022-11-24T14:56:11.996Z,5.70
2022-11-24T14:58:42.386Z,5.70
2022-11-24T15:01:21.070Z,5.70
2022-11-24T15:07:09.219Z,5.60
2022-11-24T15:09:45.549Z,5.60
2022-11-24T15:12:21.543Z,5.60
2022-11-24T15:14:54.647Z,5.60
2022-11-24T15:17:24.830Z,5.60
2022-11-24T15:19:56.256Z,5.60
2022-11-24T15:22:40.154Z,5.50
2022-11-24T15:25:28.326Z,5.50
2022-11-24T15:28:02.467Z,5.50
2022-11-24T15:30:37.537Z,5.50
2022-11-24T15:33:19.318Z,5.50
2022-11-24T15:35:47.760Z,5.50
2022-11-24T15:38:19.909Z,5.40
2022-11-24T15:40:51.194Z,5.40
2022-11-24T15:43:26.005Z,5.40
2022-11-24T15:45:56.597Z,5.40
2022-11-24T15:48:28.633Z,5.40
2022-11-24T15:50:58.150Z,5.40
2022-11-24T15:53:38.055Z,5.40
2022-11-24T15:56:13.263Z,5.40
2022-11-24T15:58:46.301Z,5.40
2022-11-24T16:01:27.729Z,5.30
2022-11-24T16:03:58.409Z,5.40
2022-11-24T16:06:29.967Z,5.30
2022-11-24T16:09:06.807Z,5.30
2022-11-24T16:11:38.653Z,5.30
2022-11-24T16:14:12.644Z,5.30
2022-11-24T16:16:43.098Z,5.30
2022-11-24T16:19:25.434Z,5.30
2022-11-24T16:21:59.403Z,5.30
2022-11-24T16:24:29.305Z,5.30
2022-11-24T16:26:57.778Z,5.30
2022-11-24T16:29:32.895Z,5.30
2022-11-24T16:32:07.245Z,5.30
2022-11-24T16:34:44.719Z,5.30
2022-11-24T16:37:15.730Z,5.30
2022-11-24T16:39:49.838Z,5.30
2022-11-24T16:42:24.948Z,5.30
2022-11-24T16:44:57.578Z,5.20
2022-11-24T16:47:25.995Z,5.20
2022-11-24T16:49:54.504Z,5.20
2022-11-24T16:52:22.751Z,5.20
2022-11-24T16:54:51.037Z,5.20
2022-11-24T16:57:22.123Z,5.20
2022-11-24T16:59:52.509Z,5.20
2022-11-24T17:02:26.289Z,5.20
2022-11-24T17:04:58.101Z,5.20
2022-11-24T17:07:29.714Z,5.20
2022-11-24T17:10:07.975Z,5.20
2022-11-24T17:17:08.815Z,5.20
2022-11-24T17:19:57.961Z,5.20
2022-11-24T17:22:34.193Z,5.20
2022-11-24T17:25:13.777Z,5.20
2022-11-24T17:27:58.166Z,5.20
2022-11-24T17:33:41.875Z,5.20
2022-11-24T17:36:25.935Z,5.10
2022-11-24T17:38:57.527Z,5.10
2022-11-24T17:44:13.233Z,5.20
2022-11-24T17:46:48.696Z,5.20
2022-11-24T17:49:21.486Z,5.10
2022-11-24T17:52:06.217Z,5.10
2022-11-24T17:55:03.704Z,5.20
2022-11-24T17:57:36.516Z,5.10
2022-11-24T18:00:20.688Z,5.10
2022-11-24T18:02:54.296Z,5.10
2022-11-24T18:08:43.709Z,5.10
2022-11-24T18:11:32.284Z,5.20
2022-11-24T18:14:12.061Z,5.10
2022-11-24T18:16:40.909Z,5.10
2022-11-24T18:19:13.553Z,5.10
2022-11-24T18:21:49.850Z,5.10
2022-11-24T18:24:29.344Z,5.10
2022-11-24T18:27:08.435Z,5.20
2022-11-24T18:29:57.424Z,5.10
2022-11-24T18:32:36.484Z,5.20
2022-11-24T18:35:36.776Z,5.10
2022-11-24T18:38:06.088Z,5.20
2022-11-24T18:40:39.596Z,5.20
2022-11-24T18:43:19.142Z,5.10
2022-11-24T18:46:07.765Z,5.10
2022-11-24T18:51:38.437Z,5.10
2022-11-24T18:54:08.126Z,5.10
2022-11-24T18:57:07.350Z,5.10
2022-11-24T18:59:43.078Z,5.10
2022-11-24T19:05:22.190Z,5.10
2022-11-24T19:08:21.074Z,5.10
2022-11-24T19:11:20.315Z,5.10
2022-11-24T19:14:01.605Z,5.10
2022-11-24T19:16:57.511Z,5.10
2022-11-24T19:20:15.091Z,5.10
2022-11-24T19:22:51.262Z,5.10
2022-11-24T19:28:34.694Z,5.10
2022-11-24T19:31:12.323Z,5.00
2022-11-24T19:34:24.628Z,5.00
2022-11-24T19:37:12.800Z,5.10
2022-11-24T19:39:47.551Z,5.00
2022-11-24T19:42:22.751Z,5.00
2022-11-24T19:45:04.970Z,5.00
2022-11-24T19:47:37.882Z,5.00
2022-11-24T19:53:03.036Z,5.00
2022-11-24T19:58:45.030Z,5.10
2022-11-24T20:01:43.235Z,5.10
2022-11-24T20:07:38.092Z,5.10
2022-11-24T20:10:34.573Z,5.10
2022-11-24T20:13:21.250Z,5.10
2022-11-24T20:19:45.200Z,5.10
2022-11-24T20:26:05.227Z,5.10
2022-11-24T20:32:41.741Z,5.10
2022-11-24T20:35:31.351Z,5.10
2022-11-24T20:38:17.118Z,5.10
2022-11-24T20:40:53.354Z,5.10
2022-11-24T20:43:25.427Z,5.10
2022-11-24T20:49:00.927Z,5.10
2022-11-24T20:51:46.006Z,5.10
2022-11-24T20:54:25.265Z,5.10
2022-11-24T21:00:12.201Z,5.20
2022-11-24T21:02:53.531Z,5.10
2022-11-24T21:05:31.238Z,5.10
2022-11-24T21:08:47.571Z,5.00
2022-11-24T21:11:24.429Z,5.00
2022-11-24T21:14:15.303Z,5.00
2022-11-24T21:16:54.318Z,4.90
2022-11-24T21:19:30.009Z,4.90
2022-11-24T21:22:18.074Z,4.80
2022-11-24T21:25:29.678Z,4.80
2022-11-24T21:29:06.414Z,4.80
2022-11-24T21:34:58.972Z,4.80
2022-11-24T21:37:39.844Z,4.80
2022-11-24T21:40:50.307Z,4.80
2022-11-24T21:46:55.660Z,4.90
2022-11-24T21:49:30.279Z,4.90
2022-11-24T21:52:01.811Z,4.90
2022-11-24T21:54:36.217Z,4.90
2022-11-24T21:57:23.479Z,4.80
2022-11-24T22:03:13.239Z,4.80
2022-11-24T22:06:27.714Z,4.80
2022-11-24T22:09:32.022Z,4.80
2022-11-24T22:23:08.009Z,4.90
2022-11-24T22:25:37.588Z,4.90
2022-11-24T22:28:24.233Z,4.90
2022-11-24T22:30:52.145Z,5.00
2022-11-24T22:33:20.362Z,5.00
2022-11-24T22:35:56.412Z,5.00
2022-11-24T22:38:24.626Z,5.00
2022-11-24T22:40:54.210Z,5.00
2022-11-24T22:43:26.689Z,5.00
2022-11-24T22:45:56.422Z,5.00
2022-11-24T22:48:28.067Z,5.00
2022-11-24T22:51:08.078Z,5.10
2022-11-24T22:53:47.170Z,5.00
2022-11-24T22:56:20.781Z,5.10
2022-11-24T23:01:42.070Z,5.10
2022-11-24T23:04:33.545Z,5.10
2022-11-24T23:07:34.604Z,5.10
2022-11-24T23:10:12.116Z,5.00
2022-11-24T23:12:47.784Z,5.10
2022-11-24T23:15:59.403Z,5.10
2022-11-24T23:18:54.023Z,5.10
2022-11-24T23:24:53.276Z,5.10
2022-11-24T23:27:36.481Z,5.10
2022-11-24T23:30:24.278Z,5.10
2022-11-24T23:33:00.356Z,5.10
2022-11-24T23:35:41.253Z,5.00
2022-11-24T23:38:15.151Z,5.00
2022-11-24T23:40:52.514Z,5.00
2022-11-24T23:43:30.777Z,4.90
2022-11-24T23:46:17.875Z,4.80
2022-11-24T23:49:40.174Z,4.70
2022-11-24T23:58:45.222Z,4.40
